createdAt,value
2019-04-10T00:01:09.794Z,2.80
2019-04-10T00:03:41.820Z,2.20
2019-04-10T00:06:09.870Z,2.42
2019-04-10T00:08:38.710Z,2.30
2019-04-10T00:11:08.191Z,2.25
2019-04-10T00:13:36.867Z,2.12
2019-04-10T00:16:05.605Z,2.33
2019-04-10T00:18:34.305Z,2.33
2019-04-10T00:21:02.970Z,2.50
2019-04-10T00:23:31.439Z,2.33
2019-04-10T00:26:01.344Z,2.52
2019-04-10T00:28:29.979Z,2.67
2019-04-10T00:30:58.485Z,2.35
2019-04-10T00:33:27.525Z,2.02
2019-04-10T00:35:56.882Z,2.50
2019-04-10T00:38:26.102Z,2.37
2019-04-10T00:40:55.459Z,2.27
2019-04-10T00:43:24.659Z,2.40
2019-04-10T00:45:53.609Z,2.20
2019-04-10T00:48:22.148Z,2.22
2019-04-10T00:50:50.996Z,2.35
2019-04-10T00:53:19.596Z,2.30
2019-04-10T00:55:48.226Z,2.20
2019-04-10T00:58:16.660Z,2.62
2019-04-10T01:00:45.417Z,2.25
2019-04-10T01:03:16.218Z,2.17
2019-04-10T01:05:44.690Z,2.35
2019-04-10T01:08:13.182Z,2.30
2019-04-10T01:10:42.242Z,2.45
2019-04-10T01:13:10.633Z,2.60
2019-04-10T01:15:39.316Z,2.70
2019-04-10T01:18:08.047Z,2.33
2019-04-10T01:20:37.661Z,2.20
2019-04-10T01:23:06.451Z,2.08
2019-04-10T01:25:34.948Z,2.15
2019-04-10T01:28:03.421Z,2.00
2019-04-10T01:30:32.789Z,2.35
2019-04-10T01:33:01.450Z,2.27
2019-04-10T01:35:30.052Z,2.17
2019-04-10T01:38:01.392Z,2.33
2019-04-10T01:40:29.099Z,2.37
2019-04-10T01:43:08.309Z,2.62
2019-04-10T01:45:27.944Z,2.15
2019-04-10T01:47:56.456Z,2.15
2019-04-10T01:50:24.932Z,2.30
2019-04-10T01:52:53.510Z,2.20
2019-04-10T01:55:25.837Z,2.12
2019-04-10T01:57:52.817Z,2.50
2019-04-10T02:00:23.677Z,2.12
2019-04-10T02:02:53.918Z,2.40
2019-04-10T02:05:22.878Z,2.52
2019-04-10T02:08:01.179Z,2.27
2019-04-10T02:10:21.732Z,2.37
2019-04-10T02:12:50.830Z,2.50
2019-04-10T02:15:19.676Z,2.33
2019-04-10T02:17:48.839Z,2.17
2019-04-10T02:20:17.407Z,2.42
2019-04-10T02:22:45.942Z,2.27
2019-04-10T02:25:16.067Z,2.70
2019-04-10T02:27:44.760Z,2.58
2019-04-10T02:30:15.110Z,2.52
2019-04-10T02:32:47.649Z,2.50
2019-04-10T02:35:17.187Z,2.62
2019-04-10T02:37:44.792Z,2.42
2019-04-10T02:40:15.073Z,2.40
2019-04-10T02:42:45.039Z,2.17
2019-04-10T02:45:14.763Z,2.42
2019-04-10T02:47:45.002Z,2.70
2019-04-10T02:50:14.317Z,2.35
2019-04-10T02:52:43.495Z,2.35
2019-04-10T02:55:12.225Z,2.50
2019-04-10T02:57:41.375Z,2.35
2019-04-10T03:00:13.142Z,2.40
2019-04-10T03:02:41.911Z,2.72
2019-04-10T03:05:10.947Z,2.67
2019-04-10T03:07:40.398Z,2.40
2019-04-10T03:10:20.509Z,2.58
2019-04-10T03:12:41.032Z,2.80
2019-04-10T03:15:12.494Z,2.40
2019-04-10T03:17:42.078Z,2.67
2019-04-10T03:20:11.200Z,2.40
2019-04-10T03:22:40.897Z,2.45
2019-04-10T03:25:10.846Z,2.30
2019-04-10T03:27:40.581Z,2.42
2019-04-10T03:30:12.700Z,2.30
2019-04-10T03:32:48.067Z,2.30
2019-04-10T03:35:23.150Z,2.25
2019-04-10T03:37:52.821Z,2.40
2019-04-10T03:40:21.724Z,2.58
2019-04-10T03:42:50.630Z,2.75
2019-04-10T03:45:20.249Z,2.90
2019-04-10T03:47:49.399Z,2.90
2019-04-10T03:50:18.415Z,2.85
2019-04-10T03:52:47.042Z,2.80
2019-04-10T03:55:16.650Z,2.98
2019-04-10T03:57:45.555Z,2.67
2019-04-10T04:00:14.205Z,2.80
2019-04-10T04:02:42.693Z,3.05
2019-04-10T04:05:12.702Z,2.72
2019-04-10T04:07:41.323Z,2.22
2019-04-10T04:10:10.846Z,2.55
2019-04-10T04:12:39.927Z,2.75
2019-04-10T04:15:09.539Z,2.60
2019-04-10T04:17:38.618Z,3.08
2019-04-10T04:20:07.561Z,2.72
2019-04-10T04:22:37.001Z,2.90
2019-04-10T04:25:06.776Z,2.80
2019-04-10T04:27:35.704Z,2.30
2019-04-10T04:30:06.980Z,2.87
2019-04-10T04:32:35.440Z,3.03
2019-04-10T04:35:04.942Z,2.87
2019-04-10T04:37:33.655Z,3.12
2019-04-10T04:40:03.024Z,2.95
2019-04-10T04:42:32.925Z,2.67
2019-04-10T04:45:01.658Z,2.90
2019-04-10T04:47:30.976Z,2.80
2019-04-10T04:50:00.117Z,3.08
2019-04-10T04:52:28.688Z,3.05
2019-04-10T04:54:57.359Z,3.12
2019-04-10T04:57:25.988Z,2.85
2019-04-10T04:59:54.511Z,2.70
2019-04-10T05:02:23.080Z,2.85
2019-04-10T05:04:51.783Z,2.95
2019-04-10T05:07:20.483Z,3.10
2019-04-10T05:09:50.344Z,3.30
2019-04-10T05:12:20.113Z,2.92
2019-04-10T05:14:48.768Z,3.30
2019-04-10T05:17:18.320Z,3.17
2019-04-10T05:19:47.030Z,3.25
2019-04-10T05:22:16.625Z,3.10
2019-04-10T05:24:45.431Z,3.12
2019-04-10T05:27:14.257Z,3.02
2019-04-10T05:29:42.987Z,3.25
2019-04-10T05:32:14.537Z,3.60
2019-04-10T05:34:44.715Z,3.25
2019-04-10T05:37:13.584Z,2.80
2019-04-10T05:39:47.627Z,3.02
2019-04-10T05:42:12.801Z,3.30
2019-04-10T05:44:42.289Z,3.20
2019-04-10T05:47:11.779Z,3.17
2019-04-10T05:49:41.388Z,3.22
2019-04-10T05:52:10.388Z,3.05
2019-04-10T05:54:39.536Z,3.27
2019-04-10T05:57:08.403Z,3.17
2019-04-10T05:59:36.980Z,3.17
2019-04-10T06:02:06.821Z,3.70
2019-04-10T06:04:35.783Z,3.40
2019-04-10T06:07:05.243Z,2.58
2019-04-10T06:09:33.876Z,3.17
2019-04-10T06:12:04.082Z,3.70
2019-04-10T06:14:32.527Z,2.70
2019-04-10T06:17:03.966Z,3.15
2019-04-10T06:19:32.340Z,3.17
2019-04-10T06:22:01.120Z,3.17
2019-04-10T06:24:30.274Z,3.20
2019-04-10T06:26:59.722Z,3.22
2019-04-10T06:29:28.817Z,3.58
2019-04-10T06:31:57.554Z,3.15
2019-04-10T06:34:26.045Z,2.98
2019-04-10T06:36:54.496Z,3.37
2019-04-10T06:39:23.342Z,3.22
2019-04-10T06:41:51.838Z,2.90
2019-04-10T06:44:20.285Z,3.62
2019-04-10T06:46:49.063Z,2.92
2019-04-10T06:49:17.920Z,3.00
2019-04-10T06:51:46.364Z,3.17
2019-04-10T06:54:14.889Z,3.25
2019-04-10T06:56:43.396Z,3.27
2019-04-10T06:59:12.203Z,3.10
2019-04-10T07:01:50.474Z,3.10
2019-04-10T07:04:11.550Z,3.47
2019-04-10T07:06:54.937Z,3.33
2019-04-10T07:09:12.308Z,3.12
2019-04-10T07:11:40.827Z,3.00
2019-04-10T07:14:13.428Z,2.65
2019-04-10T07:16:40.218Z,2.80
2019-04-10T07:19:11.497Z,2.40
2019-04-10T07:21:38.861Z,2.90
2019-04-10T07:24:09.499Z,2.75
2019-04-10T07:26:41.993Z,2.65
2019-04-10T07:29:08.928Z,2.62
2019-04-10T07:31:38.324Z,2.87
2019-04-10T07:34:08.824Z,2.40
2019-04-10T07:36:41.466Z,2.55
2019-04-10T07:39:08.044Z,2.55
2019-04-10T07:41:37.623Z,2.58
2019-04-10T07:44:06.430Z,2.77
2019-04-10T07:46:35.298Z,2.87
2019-04-10T07:49:03.756Z,2.50
2019-04-10T07:51:32.233Z,2.77
2019-04-10T07:54:01.910Z,2.60
2019-04-10T07:56:31.185Z,2.70
2019-04-10T07:59:00.561Z,2.70
2019-04-10T08:01:29.206Z,3.17
2019-04-10T08:03:57.942Z,2.45
2019-04-10T08:06:27.711Z,2.77
2019-04-10T08:08:56.664Z,2.42
2019-04-10T08:11:26.126Z,2.55
2019-04-10T08:13:56.064Z,3.00
2019-04-10T08:16:25.388Z,2.47
2019-04-10T08:18:54.216Z,2.37
2019-04-10T08:21:23.866Z,2.85
2019-04-10T08:23:53.056Z,3.22
2019-04-10T08:26:22.720Z,3.05
2019-04-10T08:28:51.677Z,2.67
2019-04-10T08:31:22.207Z,3.30
2019-04-10T08:33:50.539Z,3.17
2019-04-10T08:36:19.321Z,2.95
2019-04-10T08:38:48.945Z,3.10
2019-04-10T08:41:17.524Z,3.12
2019-04-10T08:43:46.001Z,2.95
2019-04-10T08:46:14.603Z,2.58
2019-04-10T08:48:43.460Z,2.80
2019-04-10T08:51:12.024Z,3.17
2019-04-10T08:53:41.136Z,2.72
2019-04-10T08:56:10.657Z,2.60
2019-04-10T08:58:39.698Z,3.05
2019-04-10T09:01:09.150Z,2.70
2019-04-10T09:03:37.698Z,2.75
2019-04-10T09:06:07.178Z,2.67
2019-04-10T09:08:37.051Z,3.02
2019-04-10T09:11:07.024Z,2.90
2019-04-10T09:13:36.746Z,3.00
2019-04-10T09:16:06.593Z,2.67
2019-04-10T09:18:35.566Z,2.67
2019-04-10T09:21:04.915Z,2.58
2019-04-10T09:23:42.576Z,2.87
2019-04-10T09:26:03.905Z,2.42
2019-04-10T09:28:32.797Z,2.20
2019-04-10T09:31:01.808Z,2.55
2019-04-10T09:33:32.393Z,2.40
2019-04-10T09:36:00.975Z,2.33
2019-04-10T09:38:30.652Z,2.30
2019-04-10T09:40:59.427Z,2.52
2019-04-10T09:43:28.159Z,2.25
2019-04-10T09:45:56.911Z,2.15
2019-04-10T09:48:26.354Z,2.10
2019-04-10T09:50:56.034Z,2.15
2019-04-10T09:53:24.714Z,2.47
2019-04-10T09:55:53.219Z,2.17
2019-04-10T09:58:21.906Z,2.15
2019-04-10T10:00:50.932Z,2.12
2019-04-10T10:03:19.540Z,2.10
2019-04-10T10:05:48.059Z,2.42
2019-04-10T10:08:16.575Z,2.50
2019-04-10T10:10:45.124Z,2.30
2019-04-10T10:13:13.592Z,2.10
2019-04-10T10:15:43.183Z,2.17
2019-04-10T10:18:12.935Z,2.40
2019-04-10T10:20:41.569Z,2.27
2019-04-10T10:23:11.706Z,2.40
2019-04-10T10:25:41.462Z,2.67
2019-04-10T10:28:11.700Z,2.40
2019-04-10T10:30:41.637Z,2.50
2019-04-10T10:33:10.285Z,2.08
2019-04-10T10:35:39.045Z,2.37
2019-04-10T10:38:08.301Z,2.22
2019-04-10T10:40:37.059Z,2.42
2019-04-10T10:43:05.510Z,2.15
2019-04-10T10:45:34.650Z,2.10
2019-04-10T10:48:03.441Z,2.37
2019-04-10T10:50:33.091Z,2.33
2019-04-10T10:53:01.971Z,2.35
2019-04-10T10:55:30.410Z,2.37
2019-04-10T10:57:59.652Z,2.35
2019-04-10T11:00:29.316Z,2.58
2019-04-10T11:02:58.139Z,2.35
2019-04-10T11:05:27.354Z,2.35
2019-04-10T11:07:57.270Z,2.52
2019-04-10T11:10:27.578Z,2.40
2019-04-10T11:12:56.668Z,2.52
2019-04-10T11:15:26.178Z,2.50
2019-04-10T11:17:55.240Z,2.50
2019-04-10T11:20:24.162Z,2.50
2019-04-10T11:22:53.621Z,2.22
2019-04-10T11:25:22.227Z,2.40
2019-04-10T11:27:51.570Z,2.30
2019-04-10T11:30:20.733Z,2.17
2019-04-10T11:32:50.671Z,1.92
2019-04-10T11:35:19.272Z,2.00
2019-04-10T11:37:51.333Z,2.20
2019-04-10T11:40:18.970Z,2.50
2019-04-10T11:42:47.743Z,2.02
2019-04-10T11:45:18.605Z,2.10
2019-04-10T11:47:47.467Z,2.40
2019-04-10T11:50:18.333Z,2.33
2019-04-10T11:52:52.356Z,2.25
2019-04-10T11:55:21.201Z,2.35
2019-04-10T11:57:49.722Z,2.20
2019-04-10T12:00:23.699Z,2.62
2019-04-10T12:02:52.778Z,2.60
2019-04-10T12:05:22.101Z,2.20
2019-04-10T12:08:21.010Z,2.33
2019-04-10T12:12:52.471Z,2.15
2019-04-10T12:15:21.547Z,2.15
2019-04-10T12:17:50.096Z,2.30
2019-04-10T12:20:18.915Z,2.40
2019-04-10T12:22:48.303Z,2.27
2019-04-10T12:25:18.589Z,2.30
2019-04-10T12:27:47.427Z,2.47
2019-04-10T12:30:17.371Z,2.37
2019-04-10T12:32:47.390Z,2.50
2019-04-10T12:35:17.107Z,2.85
2019-04-10T12:37:45.893Z,2.20
2019-04-10T12:40:14.707Z,2.37
2019-04-10T12:42:44.144Z,2.17
2019-04-10T12:45:13.627Z,2.50
2019-04-10T12:47:42.100Z,2.60
2019-04-10T12:50:12.059Z,2.30
2019-04-10T12:52:40.975Z,2.10
2019-04-10T12:55:10.181Z,2.30
2019-04-10T12:57:39.131Z,2.15
2019-04-10T13:00:15.879Z,2.40
2019-04-10T13:02:44.848Z,2.50
2019-04-10T13:05:14.126Z,2.30
2019-04-10T13:07:43.585Z,2.42
2019-04-10T13:10:12.825Z,2.33
2019-04-10T13:12:41.797Z,2.33
2019-04-10T13:15:12.974Z,2.30
2019-04-10T13:17:42.638Z,2.43
2019-04-10T13:20:13.588Z,2.08
2019-04-10T13:22:42.444Z,2.55
2019-04-10T13:25:12.527Z,2.30
2019-04-10T13:27:41.214Z,2.65
2019-04-10T13:30:14.194Z,2.60
2019-04-10T13:32:42.535Z,2.27
2019-04-10T13:35:11.446Z,2.30
2019-04-10T13:37:40.030Z,2.40
2019-04-10T13:40:09.035Z,2.83
2019-04-10T13:42:37.538Z,2.60
2019-04-10T13:45:08.348Z,2.70
2019-04-10T13:47:36.936Z,2.10
2019-04-10T13:50:08.788Z,2.35
2019-04-10T13:52:39.026Z,2.50
2019-04-10T13:55:10.219Z,2.70
2019-04-10T13:57:39.339Z,2.40
2019-04-10T14:00:11.387Z,2.47
2019-04-10T14:02:40.079Z,2.47
2019-04-10T14:05:13.782Z,2.45
2019-04-10T14:07:42.350Z,2.55
2019-04-10T14:10:12.526Z,2.50
2019-04-10T14:12:40.976Z,2.47
2019-04-10T14:15:10.250Z,2.45
2019-04-10T14:17:38.911Z,2.40
2019-04-10T14:20:07.992Z,2.58
2019-04-10T14:22:38.166Z,2.25
2019-04-10T14:25:09.591Z,2.70
2019-04-10T14:27:38.560Z,2.42
2019-04-10T14:30:11.313Z,2.50
2019-04-10T14:32:40.449Z,2.30
2019-04-10T14:35:11.424Z,2.20
2019-04-10T14:37:41.219Z,2.47
2019-04-10T14:40:11.681Z,2.42
2019-04-10T14:42:40.342Z,2.45
2019-04-10T14:45:09.669Z,2.55
2019-04-10T14:47:39.235Z,2.37
2019-04-10T15:55:43.335Z,2.40
2019-04-10T15:58:12.365Z,2.62
2019-04-10T16:00:41.362Z,3.20
2019-04-10T16:03:11.223Z,2.58
2019-04-10T16:05:39.862Z,2.05
2019-04-10T16:08:09.987Z,1.95
2019-04-10T16:10:49.678Z,2.10
2019-04-10T16:13:20.277Z,2.62
2019-04-10T16:15:48.878Z,1.98
2019-04-10T16:18:23.121Z,3.02
2019-04-10T16:20:56.172Z,2.60
2019-04-10T16:23:33.407Z,3.50
2019-04-10T16:26:02.949Z,3.80
2019-04-10T16:28:31.551Z,2.70
2019-04-10T16:31:01.321Z,3.65
2019-04-10T16:33:29.919Z,3.42
2019-04-10T16:35:59.064Z,2.62
2019-04-10T16:38:28.840Z,14.65
2019-04-10T16:40:58.372Z,17.37
2019-04-10T16:43:26.962Z,3.80
2019-04-10T16:45:55.533Z,2.65
2019-04-10T16:48:25.180Z,4.35
2019-04-10T16:50:54.218Z,3.08
2019-04-10T16:53:22.780Z,2.65
2019-04-10T16:55:51.493Z,3.37
2019-04-10T16:58:20.104Z,2.90
2019-04-10T17:00:49.957Z,2.83
2019-04-10T17:03:19.679Z,3.25
2019-04-10T17:05:48.353Z,3.30
2019-04-10T17:08:17.026Z,3.00
2019-04-10T17:10:46.422Z,2.75
2019-04-10T17:13:16.127Z,2.75
2019-04-10T17:15:45.063Z,2.62
2019-04-10T17:18:13.533Z,2.30
2019-04-10T17:20:42.479Z,2.60
2019-04-10T17:23:12.278Z,2.90
2019-04-10T17:25:42.245Z,2.27
2019-04-10T17:28:12.198Z,2.62
2019-04-10T17:30:41.913Z,2.67
2019-04-10T17:33:11.158Z,2.72
2019-04-10T17:35:40.169Z,2.50
2019-04-10T17:38:10.041Z,2.90
2019-04-10T17:40:47.762Z,2.55
2019-04-10T17:43:08.938Z,2.60
2019-04-10T17:45:38.572Z,2.58
2019-04-10T17:48:07.290Z,2.80
2019-04-10T17:50:35.817Z,3.05
2019-04-10T17:53:05.062Z,3.12
2019-04-10T17:55:35.631Z,2.75
2019-04-10T17:58:05.411Z,2.77
2019-04-10T18:00:35.757Z,3.20
2019-04-10T18:03:05.458Z,3.35
2019-04-10T18:05:34.963Z,3.52
2019-04-10T18:08:05.007Z,3.15
2019-04-10T18:10:46.432Z,3.50
2019-04-10T18:13:05.971Z,3.25
2019-04-10T18:15:35.734Z,3.65
2019-04-10T18:18:07.203Z,3.47
2019-04-10T18:20:37.017Z,3.98
2019-04-10T18:23:07.026Z,3.72
2019-04-10T18:25:36.220Z,3.62
2019-04-10T18:28:05.504Z,3.25
2019-04-10T18:30:35.529Z,3.67
2019-04-10T18:33:05.127Z,3.77
2019-04-10T18:35:35.265Z,3.70
2019-04-10T18:38:04.062Z,4.00
2019-04-10T18:40:32.523Z,3.67
2019-04-10T18:43:02.145Z,3.52
2019-04-10T18:45:30.861Z,3.62
2019-04-10T18:47:59.570Z,3.80
2019-04-10T18:50:29.499Z,3.62
2019-04-10T18:52:58.086Z,4.25
2019-04-10T18:55:26.572Z,3.87
2019-04-10T18:57:55.110Z,3.60
2019-04-10T19:00:42.808Z,3.77
2019-04-10T19:03:13.156Z,4.40
2019-04-10T19:05:45.995Z,3.60
2019-04-10T19:08:16.068Z,3.72
2019-04-10T19:10:45.469Z,4.00
2019-04-10T19:13:15.085Z,4.55
2019-04-10T19:15:44.759Z,4.03
2019-04-10T19:18:13.774Z,4.35
2019-04-10T19:20:42.946Z,4.50
2019-04-10T19:23:12.933Z,4.08
2019-04-10T19:25:41.536Z,4.37
2019-04-10T19:28:10.769Z,4.70
2019-04-10T19:30:41.467Z,4.05
2019-04-10T19:33:10.127Z,4.87
2019-04-10T19:35:39.258Z,4.58
2019-04-10T19:38:09.247Z,5.17
2019-04-10T19:40:40.380Z,5.60
2019-04-10T19:43:10.269Z,4.63
2019-04-10T19:45:39.799Z,4.80
2019-04-10T19:48:08.998Z,5.25
2019-04-10T19:50:37.643Z,5.03
2019-04-10T19:53:06.161Z,4.95
2019-04-10T19:55:35.845Z,4.70
2019-04-10T19:58:04.477Z,5.08
2019-04-10T20:00:34.947Z,4.92
2019-04-10T20:03:03.756Z,5.25
2019-04-10T20:05:32.249Z,4.85
2019-04-10T20:08:01.651Z,5.10
2019-04-10T20:10:30.205Z,5.62
2019-04-10T20:12:59.379Z,5.30
2019-04-10T20:15:28.832Z,5.33
2019-04-10T20:17:57.288Z,4.85
2019-04-10T20:20:27.055Z,5.72
2019-04-10T20:22:55.754Z,5.90
2019-04-10T20:25:24.379Z,5.22
2019-04-10T20:27:53.100Z,5.70
2019-04-10T20:30:23.802Z,5.60
2019-04-10T20:32:52.443Z,5.67
2019-04-10T20:35:20.987Z,5.28
2019-04-10T20:37:49.689Z,5.50
2019-04-10T20:40:19.542Z,5.60
2019-04-10T20:42:48.713Z,5.60
2019-04-10T20:45:17.700Z,5.65
2019-04-10T20:47:46.945Z,5.37
2019-04-10T20:50:15.598Z,5.95
2019-04-10T20:52:45.274Z,5.28
2019-04-10T20:55:14.217Z,5.50
2019-04-10T20:57:43.824Z,4.83
2019-04-10T21:00:14.528Z,5.60
2019-04-10T21:02:43.023Z,5.45
2019-04-10T21:05:14.813Z,5.35
2019-04-10T21:07:41.834Z,6.22
2019-04-10T21:10:10.792Z,5.40
2019-04-10T21:12:39.860Z,5.65
2019-04-10T21:15:09.219Z,5.67
2019-04-10T21:17:37.725Z,5.80
2019-04-10T21:20:08.126Z,5.78
2019-04-10T21:22:36.906Z,5.78
2019-04-10T21:25:06.712Z,5.60
2019-04-10T21:27:35.514Z,5.85
2019-04-10T21:30:16.091Z,5.40
2019-04-10T21:32:47.432Z,5.37
2019-04-10T21:35:18.762Z,6.28
2019-04-10T21:37:48.570Z,6.42
2019-04-10T21:40:18.569Z,5.92
2019-04-10T21:42:47.622Z,6.42
2019-04-10T21:45:16.360Z,5.95
2019-04-10T21:47:45.991Z,6.50
2019-04-10T21:50:15.440Z,6.10
2019-04-10T21:52:45.465Z,7.00
2019-04-10T21:55:15.017Z,6.87
2019-04-10T21:57:44.760Z,6.40
2019-04-10T22:00:16.405Z,6.95
2019-04-10T22:02:46.504Z,7.08
2019-04-10T22:05:16.337Z,6.78
2019-04-10T22:07:50.368Z,6.50
2019-04-10T22:10:20.653Z,6.83
2019-04-10T22:12:52.175Z,7.30
2019-04-10T22:15:22.589Z,6.83
2019-04-10T22:17:52.326Z,7.25
2019-04-10T22:20:20.931Z,7.30
2019-04-10T22:22:49.633Z,7.03
2019-04-10T22:25:19.414Z,6.80
2019-04-10T22:27:47.968Z,7.10
2019-04-10T22:30:18.902Z,7.17
2019-04-10T22:32:47.592Z,6.85
2019-04-10T22:35:17.432Z,7.40
2019-04-10T22:37:46.637Z,7.10
2019-04-10T22:40:15.451Z,6.90
2019-04-10T22:42:46.758Z,6.70
2019-04-10T22:45:30.759Z,7.20
2019-04-10T22:48:00.708Z,7.22
2019-04-10T22:50:29.311Z,6.25
2019-04-10T22:52:59.258Z,7.30
2019-04-10T22:55:28.154Z,6.33
2019-04-10T22:57:57.066Z,6.50
2019-04-10T23:00:27.984Z,7.03
2019-04-10T23:02:57.286Z,6.57
2019-04-10T23:05:26.779Z,6.60
2019-04-10T23:07:55.854Z,6.12
2019-04-10T23:10:24.815Z,6.47
2019-04-10T23:13:00.036Z,6.75
2019-04-10T23:15:25.139Z,6.65
2019-04-10T23:17:53.875Z,6.55
2019-04-10T23:20:22.382Z,6.22
2019-04-10T23:22:50.915Z,6.08
2019-04-10T23:25:20.441Z,5.92
2019-04-10T23:27:51.920Z,6.10
2019-04-10T23:30:19.951Z,6.20
2019-04-10T23:32:48.810Z,6.03
2019-04-10T23:35:17.346Z,5.70
2019-04-10T23:37:46.880Z,6.15
2019-04-10T23:40:16.837Z,6.17
2019-04-10T23:46:14.602Z,5.58
2019-04-10T23:48:43.105Z,5.83
2019-04-10T23:51:12.609Z,5.92
2019-04-10T23:53:41.276Z,6.22
2019-04-10T23:56:09.761Z,6.22
2019-04-10T23:58:38.264Z,6.30
